sensor_id;sensor_type;location;lat;lon;timestamp;pressure;altitude;pressure_sealevel;temperature;humidity
17260;BME280;8746;49.230;9.220;2023-02-22T00:01:14;99929.84;;;2.56;100.00
17260;BME280;8746;49.230;9.220;2023-02-22T00:03:52;99936.78;;;2.55;100.00
17260;BME280;8746;49.230;9.220;2023-02-22T00:06:20;99929.88;;;2.51;100.00
17260;BME280;8746;49.230;9.220;2023-02-22T00:08:49;99930.78;;;2.46;100.00
17260;BME280;8746;49.230;9.220;2023-02-22T00:11:15;99927.34;;;2.40;100.00
17260;BME280;8746;49.230;9.220;2023-02-22T00:13:40;99929.97;;;2.37;100.00
17260;BME280;8746;49.230;9.220;2023-02-22T00:16:16;99926.50;;;2.35;100.00
17260;BME280;8746;49.230;9.220;2023-02-22T00:18:42;99924.78;;;2.34;100.00
17260;BME280;8746;49.230;9.220;2023-02-22T00:21:09;99926.69;;;2.03;100.00
17260;BME280;8746;49.230;9.220;2023-02-22T00:23:36;99926.72;;;2.04;100.00
17260;BME280;8746;49.230;9.220;2023-02-22T00:26:04;99922.38;;;2.08;100.00
17260;BME280;8746;49.230;9.220;2023-02-22T00:28:30;99924.97;;;2.08;100.00
17260;BME280;8746;49.230;9.220;2023-02-22T00:30:55;99920.56;;;2.12;100.00
17260;BME280;8746;49.230;9.220;2023-02-22T00:33:22;99914.53;;;2.11;100.00
17260;BME280;8746;49.230;9.220;2023-02-22T00:35:47;99916.28;;;2.11;100.00
17260;BME280;8746;49.230;9.220;2023-02-22T00:38:15;99915.38;;;2.12;100.00
17260;BME280;8746;49.230;9.220;2023-02-22T00:40:41;99912.75;;;2.19;100.00
17260;BME280;8746;49.230;9.220;2023-02-22T00:43:07;99909.22;;;2.23;100.00
17260;BME280;8746;49.230;9.220;2023-02-22T00:45:33;99915.31;;;2.22;100.00
17260;BME280;8746;49.230;9.220;2023-02-22T00:48:00;99908.38;;;2.23;100.00
17260;BME280;8746;49.230;9.220;2023-02-22T00:50:28;99904.91;;;2.24;100.00
17260;BME280;8746;49.230;9.220;2023-02-22T00:52:55;99910.06;;;2.30;100.00
17260;BME280;8746;49.230;9.220;2023-02-22T00:55:26;99911.94;;;2.06;100.00
17260;BME280;8746;49.230;9.220;2023-02-22T00:57:53;99901.56;;;2.03;100.00
17260;BME280;8746;49.230;9.220;2023-02-22T01:00:31;99902.53;;;1.82;100.00
17260;BME280;8746;49.230;9.220;2023-02-22T01:02:57;99895.59;;;1.87;100.00
17260;BME280;8746;49.230;9.220;2023-02-22T01:05:26;99894.75;;;1.81;100.00
17260;BME280;8746;49.230;9.220;2023-02-22T01:07:53;99899.94;;;1.84;100.00
17260;BME280;8746;49.230;9.220;2023-02-22T01:10:21;99889.53;;;1.81;100.00
17260;BME280;8746;49.230;9.220;2023-02-22T01:12:47;99889.53;;;1.82;100.00
17260;BME280;8746;49.230;9.220;2023-02-22T01:15:15;99887.75;;;1.86;100.00
17260;BME280;8746;49.230;9.220;2023-02-22T01:17:40;99879.97;;;1.89;100.00
17260;BME280;8746;49.230;9.220;2023-02-22T01:20:09;99888.59;;;1.94;100.00
17260;BME280;8746;49.230;9.220;2023-02-22T01:22:39;99887.72;;;1.92;100.00
17260;BME280;8746;49.230;9.220;2023-02-22T01:25:07;99879.06;;;1.93;100.00
17260;BME280;8746;49.230;9.220;2023-02-22T01:27:33;99875.59;;;1.97;100.00
17260;BME280;8746;49.230;9.220;2023-02-22T01:29:59;99860.00;;;1.88;100.00
17260;BME280;8746;49.230;9.220;2023-02-22T01:32:25;99872.19;;;1.83;100.00
17260;BME280;8746;49.230;9.220;2023-02-22T01:34:54;99867.00;;;1.80;100.00
17260;BME280;8746;49.230;9.220;2023-02-22T01:37:19;99873.94;;;1.81;100.00
17260;BME280;8746;49.230;9.220;2023-02-22T01:39:44;99872.19;;;1.83;100.00
17260;BME280;8746;49.230;9.220;2023-02-22T01:42:10;99874.78;;;1.87;100.00
17260;BME280;8746;49.230;9.220;2023-02-22T01:44:37;99872.13;;;1.92;100.00
17260;BME280;8746;49.230;9.220;2023-02-22T01:47:04;99860.91;;;1.82;100.00
17260;BME280;8746;49.230;9.220;2023-02-22T01:49:43;99866.09;;;1.85;100.00
17260;BME280;8746;49.230;9.220;2023-02-22T01:52:13;99868.66;;;1.88;100.00
17260;BME280;8746;49.230;9.220;2023-02-22T01:54:46;99863.63;;;1.65;100.00
17260;BME280;8746;49.230;9.220;2023-02-22T01:57:18;99862.75;;;1.68;100.00
17260;BME280;8746;49.230;9.220;2023-02-22T01:59:49;99861.91;;;1.61;100.00
17260;BME280;8746;49.230;9.220;2023-02-22T02:02:16;99855.91;;;1.48;100.00
17260;BME280;8746;49.230;9.220;2023-02-22T02:04:43;99855.91;;;1.43;100.00
17260;BME280;8746;49.230;9.220;2023-02-22T02:07:12;99857.66;;;1.44;100.00
17260;BME280;8746;49.230;9.220;2023-02-22T02:09:46;99851.59;;;1.42;100.00
17260;BME280;8746;49.230;9.220;2023-02-22T02:12:16;99845.50;;;1.50;100.00
17260;BME280;8746;49.230;9.220;2023-02-22T02:14:43;99846.38;;;1.42;100.00
17260;BME280;8746;49.230;9.220;2023-02-22T02:17:11;99854.16;;;1.46;100.00
17260;BME280;8746;49.230;9.220;2023-02-22T02:28:16;99834.22;;;1.48;100.00
17260;BME280;8746;49.230;9.220;2023-02-22T02:33:32;99833.38;;;1.47;100.00
17260;BME280;8746;49.230;9.220;2023-02-22T02:36:08;99823.84;;;1.44;100.00
17260;BME280;8746;49.230;9.220;2023-02-22T02:41:38;99819.53;;;1.40;100.00
17260;BME280;8746;49.230;9.220;2023-02-22T02:44:05;99821.28;;;1.38;100.00
17260;BME280;8746;49.230;9.220;2023-02-22T02:46:37;99815.19;;;1.39;100.00
17260;BME280;8746;49.230;9.220;2023-02-22T02:49:07;99807.41;;;1.41;100.00
17260;BME280;8746;49.230;9.220;2023-02-22T02:51:41;99811.75;;;1.39;100.00
17260;BME280;8746;49.230;9.220;2023-02-22T02:54:09;99808.28;;;1.35;100.00
17260;BME280;8746;49.230;9.220;2023-02-22T02:56:35;99811.75;;;1.36;100.00
17260;BME280;8746;49.230;9.220;2023-02-22T02:59:01;99801.31;;;1.40;100.00
17260;BME280;8746;49.230;9.220;2023-02-22T03:01:40;99810.84;;;1.43;100.00
17260;BME280;8746;49.230;9.220;2023-02-22T03:07:20;99805.69;;;1.37;100.00
17260;BME280;8746;49.230;9.220;2023-02-22T03:10:40;99795.28;;;1.37;100.00
17260;BME280;8746;49.230;9.220;2023-02-22T03:19:10;99785.81;;;1.31;100.00
17260;BME280;8746;49.230;9.220;2023-02-22T03:21:23;99784.06;;;1.27;100.00
17260;BME280;8746;49.230;9.220;2023-02-22T03:24:12;99795.34;;;1.24;100.00
17260;BME280;8746;49.230;9.220;2023-02-22T03:26:48;99798.81;;;1.26;100.00
17260;BME280;8746;49.230;9.220;2023-02-22T03:29:17;99783.22;;;1.22;100.00
17260;BME280;8746;49.230;9.220;2023-02-22T03:31:48;99785.00;;;1.12;100.00
17260;BME280;8746;49.230;9.220;2023-02-22T03:34:22;99791.09;;;1.09;100.00
17260;BME280;8746;49.230;9.220;2023-02-22T03:36:54;99786.75;;;1.10;100.00
17260;BME280;8746;49.230;9.220;2023-02-22T03:39:22;99783.28;;;1.14;100.00
17260;BME280;8746;49.230;9.220;2023-02-22T03:41:57;99788.47;;;1.11;100.00
17260;BME280;8746;49.230;9.220;2023-02-22T03:44:30;99780.66;;;1.12;100.00
17260;BME280;8746;49.230;9.220;2023-02-22T03:47:00;99781.56;;;1.11;100.00
17260;BME280;8746;49.230;9.220;2023-02-22T03:49:34;99784.97;;;1.18;100.00
17260;BME280;8746;49.230;9.220;2023-02-22T03:52:02;99777.22;;;1.07;100.00
17260;BME280;8746;49.230;9.220;2023-02-22T03:54:28;99781.56;;;1.07;100.00
17260;BME280;8746;49.230;9.220;2023-02-22T03:57:19;99784.22;;;0.96;100.00
17260;BME280;8746;49.230;9.220;2023-02-22T03:59:47;99785.94;;;0.94;100.00
17260;BME280;8746;49.230;9.220;2023-02-22T04:02:13;99780.75;;;0.89;100.00
17260;BME280;8746;49.230;9.220;2023-02-22T04:04:38;99781.63;;;0.87;100.00
17260;BME280;8746;49.230;9.220;2023-02-22T04:07:03;99776.44;;;0.87;100.00
17260;BME280;8746;49.230;9.220;2023-02-22T04:09:29;99774.72;;;0.92;100.00
17260;BME280;8746;49.230;9.220;2023-02-22T04:11:54;99782.50;;;0.92;100.00
17260;BME280;8746;49.230;9.220;2023-02-22T04:14:19;99773.81;;;0.99;100.00
17260;BME280;8746;49.230;9.220;2023-02-22T04:16:45;99782.44;;;1.04;100.00
17260;BME280;8746;49.230;9.220;2023-02-22T04:19:10;99788.53;;;0.99;100.00
17260;BME280;8746;49.230;9.220;2023-02-22T04:21:36;99780.75;;;0.89;100.00
17260;BME280;8746;49.230;9.220;2023-02-22T04:24:01;99777.31;;;0.79;100.00
17260;BME280;8746;49.230;9.220;2023-02-22T04:26:26;99776.47;;;0.84;100.00
17260;BME280;8746;49.230;9.220;2023-02-22T04:28:52;99773.00;;;0.77;100.00
17260;BME280;8746;49.230;9.220;2023-02-22T04:31:17;99773.00;;;0.75;100.00
17260;BME280;8746;49.230;9.220;2023-02-22T04:33:42;99766.94;;;0.83;100.00
17260;BME280;8746;49.230;9.220;2023-02-22T04:36:08;99774.72;;;0.79;100.00
17260;BME280;8746;49.230;9.220;2023-02-22T04:38:35;99762.63;;;0.75;100.00
17260;BME280;8746;49.230;9.220;2023-02-22T04:41:01;99766.94;;;0.73;100.00
17260;BME280;8746;49.230;9.220;2023-02-22T04:43:26;99763.50;;;0.74;100.00
17260;BME280;8746;49.230;9.220;2023-02-22T04:45:52;99766.13;;;0.71;100.00
17260;BME280;8746;49.230;9.220;2023-02-22T04:48:17;99766.09;;;0.76;100.00
17260;BME280;8746;49.230;9.220;2023-02-22T04:50:42;99760.91;;;0.70;100.00
17260;BME280;8746;49.230;9.220;2023-02-22T04:53:08;99762.63;;;0.71;100.00
17260;BME280;8746;49.230;9.220;2023-02-22T04:55:33;99759.19;;;0.75;100.00
17260;BME280;8746;49.230;9.220;2023-02-22T04:57:58;99764.34;;;0.78;100.00
17260;BME280;8746;49.230;9.220;2023-02-22T05:00:24;99753.09;;;0.74;100.00
17260;BME280;8746;49.230;9.220;2023-02-22T05:02:51;99756.59;;;0.70;100.00
17260;BME280;8746;49.230;9.220;2023-02-22T05:05:18;99758.34;;;0.59;100.00
17260;BME280;8746;49.230;9.220;2023-02-22T05:07:45;99751.41;;;0.64;100.00
17260;BME280;8746;49.230;9.220;2023-02-22T05:10:12;99753.16;;;0.57;100.00
17260;BME280;8746;49.230;9.220;2023-02-22T05:12:37;99757.50;;;0.55;100.00
17260;BME280;8746;49.230;9.220;2023-02-22T05:15:04;99760.97;;;0.54;100.00
17260;BME280;8746;49.230;9.220;2023-02-22T05:17:30;99755.75;;;0.60;100.00
17260;BME280;8746;49.230;9.220;2023-02-22T05:19:55;99758.34;;;0.62;100.00
17260;BME280;8746;49.230;9.220;2023-02-22T05:22:20;99756.63;;;0.53;100.00
17260;BME280;8746;49.230;9.220;2023-02-22T05:24:46;99757.53;;;0.44;100.00
17260;BME280;8746;49.230;9.220;2023-02-22T05:27:11;99761.81;;;0.55;100.00
17260;BME280;8746;49.230;9.220;2023-02-22T05:29:37;99760.94;;;0.62;100.00
17260;BME280;8746;49.230;9.220;2023-02-22T05:32:03;99758.34;;;0.46;100.00
17260;BME280;8746;49.230;9.220;2023-02-22T05:34:29;99754.91;;;0.47;100.00
17260;BME280;8746;49.230;9.220;2023-02-22T05:36:55;99756.66;;;0.47;100.00
17260;BME280;8746;49.230;9.220;2023-02-22T05:39:20;99754.06;;;0.45;100.00
17260;BME280;8746;49.230;9.220;2023-02-22T05:41:46;99759.25;;;0.42;100.00
17260;BME280;8746;49.230;9.220;2023-02-22T05:44:11;99754.06;;;0.42;100.00
17260;BME280;8746;49.230;9.220;2023-02-22T05:46:36;99750.59;;;0.45;100.00
17260;BME280;8746;49.230;9.220;2023-02-22T05:49:02;99767.03;;;0.42;100.00
17260;BME280;8746;49.230;9.220;2023-02-22T05:51:27;99758.34;;;0.46;100.00
17260;BME280;8746;49.230;9.220;2023-02-22T05:53:53;99753.16;;;0.46;100.00
17260;BME280;8746;49.230;9.220;2023-02-22T05:56:26;99763.56;;;0.46;100.00
17260;BME280;8746;49.230;9.220;2023-02-22T05:58:52;99753.16;;;0.46;100.00
17260;BME280;8746;49.230;9.220;2023-02-22T06:01:17;99753.16;;;0.46;100.00
17260;BME280;8746;49.230;9.220;2023-02-22T06:03:47;99751.47;;;0.45;100.00
17260;BME280;8746;49.230;9.220;2023-02-22T06:06:13;99750.59;;;0.43;100.00
17260;BME280;8746;49.230;9.220;2023-02-22T06:08:38;99748.00;;;0.43;100.00
17260;BME280;8746;49.230;9.220;2023-02-22T06:11:03;99749.75;;;0.44;100.00
17260;BME280;8746;49.230;9.220;2023-02-22T06:13:29;99758.41;;;0.42;100.00
17260;BME280;8746;49.230;9.220;2023-02-22T06:15:54;99756.69;;;0.39;100.00
17260;BME280;8746;49.230;9.220;2023-02-22T06:18:20;99759.25;;;0.39;100.00
17260;BME280;8746;49.230;9.220;2023-02-22T06:20:45;99756.69;;;0.33;100.00
17260;BME280;8746;49.230;9.220;2023-02-22T06:23:10;99758.38;;;0.40;100.00
17260;BME280;8746;49.230;9.220;2023-02-22T06:25:36;99754.94;;;0.32;100.00
17260;BME280;8746;49.230;9.220;2023-02-22T06:28:01;99758.41;;;0.37;100.00
17260;BME280;8746;49.230;9.220;2023-02-22T06:30:28;99763.59;;;0.32;100.00
17260;BME280;8746;49.230;9.220;2023-02-22T06:32:54;99767.94;;;0.21;100.00
17260;BME280;8746;49.230;9.220;2023-02-22T06:35:20;99763.59;;;0.22;100.00
17260;BME280;8746;49.230;9.220;2023-02-22T06:37:46;99762.72;;;0.29;100.00
17260;BME280;8746;49.230;9.220;2023-02-22T06:40:12;99760.13;;;0.29;100.00
17260;BME280;8746;49.230;9.220;2023-02-22T06:42:38;99768.78;;;0.36;100.00
17260;BME280;8746;49.230;9.220;2023-02-22T06:45:04;99767.06;;;0.39;100.00
17260;BME280;8746;49.230;9.220;2023-02-22T06:47:29;99773.94;;;0.46;100.00
17260;BME280;8746;49.230;9.220;2023-02-22T06:49:56;99775.66;;;0.47;100.00
17260;BME280;8746;49.230;9.220;2023-02-22T06:52:22;99782.59;;;0.52;100.00
17260;BME280;8746;49.230;9.220;2023-02-22T06:54:49;99783.44;;;0.66;100.00
17260;BME280;8746;49.230;9.220;2023-02-22T06:57:14;99785.16;;;0.66;100.00
17260;BME280;8746;49.230;9.220;2023-02-22T06:59:39;99793.81;;;0.69;100.00
17260;BME280;8746;49.230;9.220;2023-02-22T07:02:05;99789.47;;;0.77;100.00
17260;BME280;8746;49.230;9.220;2023-02-22T07:04:30;99792.91;;;0.83;100.00
17260;BME280;8746;49.230;9.220;2023-02-22T07:06:56;99797.19;;;0.91;100.00
17260;BME280;8746;49.230;9.220;2023-02-22T07:09:21;99798.06;;;0.90;100.00
17260;BME280;8746;49.230;9.220;2023-02-22T07:11:46;99805.84;;;0.95;100.00
17260;BME280;8746;49.230;9.220;2023-02-22T07:14:12;99804.09;;;1.00;100.00
17260;BME280;8746;49.230;9.220;2023-02-22T07:16:37;99798.91;;;1.02;100.00
17260;BME280;8746;49.230;9.220;2023-02-22T07:19:03;99795.44;;;1.04;100.00
17260;BME280;8746;49.230;9.220;2023-02-22T07:21:28;99798.91;;;1.08;100.00
17260;BME280;8746;49.230;9.220;2023-02-22T07:23:56;99797.94;;;1.20;100.00
17260;BME280;8746;49.230;9.220;2023-02-22T07:26:23;99797.94;;;1.20;100.00
17260;BME280;8746;49.230;9.220;2023-02-22T07:28:49;99805.75;;;1.24;100.00
17260;BME280;8746;49.230;9.220;2023-02-22T07:31:16;99804.81;;;1.36;100.00
17260;BME280;8746;49.230;9.220;2023-02-22T07:33:47;99810.94;;;1.24;100.00
17260;BME280;8746;49.230;9.220;2023-02-22T07:36:14;99811.78;;;1.28;100.00
17260;BME280;8746;49.230;9.220;2023-02-22T07:38:45;99812.56;;;1.47;100.00
17260;BME280;8746;49.230;9.220;2023-02-22T07:41:11;99807.28;;;1.61;100.00
17260;BME280;8746;49.230;9.220;2023-02-22T07:43:36;99809.84;;;1.70;100.00
17260;BME280;8746;49.230;9.220;2023-02-22T07:46:02;99812.38;;;1.81;100.00
17260;BME280;8746;49.230;9.220;2023-02-22T07:48:28;99804.56;;;1.83;100.00
17260;BME280;8746;49.230;9.220;2023-02-22T07:50:55;99802.69;;;2.00;100.00
17260;BME280;8746;49.230;9.220;2023-02-22T07:53:26;99791.41;;;2.04;100.00
17260;BME280;8746;49.230;9.220;2023-02-22T07:55:56;99794.78;;;2.13;100.00
17260;BME280;8746;49.230;9.220;2023-02-22T07:58:23;99799.88;;;2.25;100.00
17260;BME280;8746;49.230;9.220;2023-02-22T08:00:49;99798.91;;;2.38;100.00
17260;BME280;8746;49.230;9.220;2023-02-22T08:03:17;99795.09;;;2.73;100.00
17260;BME280;8746;49.230;9.220;2023-02-22T08:05:49;99795.78;;;2.89;100.00
17260;BME280;8746;49.230;9.220;2023-02-22T08:08:15;99792.44;;;2.80;100.00
17260;BME280;8746;49.230;9.220;2023-02-22T08:10:42;99796.56;;;2.99;100.00
17260;BME280;8746;49.230;9.220;2023-02-22T08:13:07;99795.84;;;2.85;100.00
17260;BME280;8746;49.230;9.220;2023-02-22T08:15:35;99794.06;;;2.88;100.00
17260;BME280;8746;49.230;9.220;2023-02-22T08:18:05;99792.25;;;2.95;100.00
17260;BME280;8746;49.230;9.220;2023-02-22T08:20:30;99795.56;;;3.08;100.00
17260;BME280;8746;49.230;9.220;2023-02-22T08:22:56;99795.44;;;3.19;100.00
17260;BME280;8746;49.230;9.220;2023-02-22T08:25:26;99802.22;;;3.35;100.00
17260;BME280;8746;49.230;9.220;2023-02-22T08:27:56;99801.31;;;3.35;100.00
17260;BME280;8746;49.230;9.220;2023-02-22T08:30:24;99798.56;;;3.47;100.00
17260;BME280;8746;49.230;9.220;2023-02-22T08:32:50;99801.88;;;3.60;100.00
17260;BME280;8746;49.230;9.220;2023-02-22T08:35:18;99794.75;;;3.72;100.00
17260;BME280;8746;49.230;9.220;2023-02-22T08:37:46;99785.94;;;3.79;100.00
17260;BME280;8746;49.230;9.220;2023-02-22T08:40:12;99788.56;;;3.79;100.00
17260;BME280;8746;49.230;9.220;2023-02-22T08:42:38;99785.78;;;3.90;100.00
17260;BME280;8746;49.230;9.220;2023-02-22T08:45:03;99789.97;;;4.01;100.00
17260;BME280;8746;49.230;9.220;2023-02-22T08:47:29;99775.84;;;4.12;100.00
17260;BME280;8746;49.230;9.220;2023-02-22T08:49:54;99773.84;;;4.29;100.00
17260;BME280;8746;49.230;9.220;2023-02-22T08:52:20;99771.94;;;4.38;100.00
17260;BME280;8746;49.230;9.220;2023-02-22T08:54:46;99765.75;;;4.43;100.00
17260;BME280;8746;49.230;9.220;2023-02-22T08:57:13;99767.28;;;4.55;100.00
17260;BME280;8746;49.230;9.220;2023-02-22T08:59:38;99768.75;;;4.70;100.00
17260;BME280;8746;49.230;9.220;2023-02-22T09:02:04;99766.88;;;4.78;100.00
17260;BME280;8746;49.230;9.220;2023-02-22T09:04:29;99770.03;;;4.94;100.00
17260;BME280;8746;49.230;9.220;2023-02-22T09:06:55;99771.53;;;5.06;100.00
17260;BME280;8746;49.230;9.220;2023-02-22T09:09:20;99764.38;;;5.14;100.00
17260;BME280;8746;49.230;9.220;2023-02-22T09:11:48;99771.16;;;5.23;100.00
17260;BME280;8746;49.230;9.220;2023-02-22T09:14:15;99772.06;;;5.22;100.00
17260;BME280;8746;49.230;9.220;2023-02-22T09:16:42;99761.09;;;5.45;98.72
17260;BME280;8746;49.230;9.220;2023-02-22T09:19:07;99768.94;;;5.45;97.75
17260;BME280;8746;49.230;9.220;2023-02-22T09:21:33;99757.16;;;5.67;97.43
17260;BME280;8746;49.230;9.220;2023-02-22T09:23:58;99754.53;;;5.67;98.33
17260;BME280;8746;49.230;9.220;2023-02-22T09:26:32;99761.38;;;5.72;97.82
17260;BME280;8746;49.230;9.220;2023-02-22T09:28:57;99754.66;;;6.00;97.29
17260;BME280;8746;49.230;9.220;2023-02-22T09:31:23;99754.78;;;6.30;95.28
17260;BME280;8746;49.230;9.220;2023-02-22T09:33:48;99746.84;;;6.33;95.75
17260;BME280;8746;49.230;9.220;2023-02-22T09:36:13;99745.81;;;6.40;96.12
17260;BME280;8746;49.230;9.220;2023-02-22T09:38:39;99746.03;;;6.64;95.87
17260;BME280;8746;49.230;9.220;2023-02-22T09:41:17;99747.06;;;6.89;93.46
17260;BME280;8746;49.230;9.220;2023-02-22T09:43:50;99748.53;;;7.00;93.23
17260;BME280;8746;49.230;9.220;2023-02-22T09:46:37;99738.69;;;7.38;91.89
17260;BME280;8746;49.230;9.220;2023-02-22T09:54:13;99722.25;;;7.86;89.00
17260;BME280;8746;49.230;9.220;2023-02-22T09:56:43;99723.13;;;7.87;89.26
17260;BME280;8746;49.230;9.220;2023-02-22T09:59:12;99722.59;;;8.04;88.79
17260;BME280;8746;49.230;9.220;2023-02-22T10:01:42;99726.03;;;8.31;87.69
17260;BME280;8746;49.230;9.220;2023-02-22T10:07:52;99722.31;;;8.64;82.99
17260;BME280;8746;49.230;9.220;2023-02-22T10:09:47;99713.28;;;9.19;81.77
17260;BME280;8746;49.230;9.220;2023-02-22T10:12:22;99712.16;;;9.48;79.51
17260;BME280;8746;49.230;9.220;2023-02-22T10:25:58;99706.84;;;9.72;76.63
17260;BME280;8746;49.230;9.220;2023-02-22T10:28:37;99702.91;;;9.60;76.88
17260;BME280;8746;49.230;9.220;2023-02-22T10:31:07;99701.06;;;9.84;75.82
17260;BME280;8746;49.230;9.220;2023-02-22T10:33:38;99690.16;;;9.71;74.12
17260;BME280;8746;49.230;9.220;2023-02-22T10:36:05;99692.41;;;10.23;73.55
17260;BME280;8746;49.230;9.220;2023-02-22T10:38:40;99697.59;;;10.66;70.85
17260;BME280;8746;49.230;9.220;2023-02-22T10:43:37;99683.59;;;11.04;69.57
17260;BME280;8746;49.230;9.220;2023-02-22T10:46:06;99690.44;;;11.27;68.16
17260;BME280;8746;49.230;9.220;2023-02-22T10:48:36;99688.22;;;11.37;67.19
17260;BME280;8746;49.230;9.220;2023-02-22T10:51:06;99692.03;;;11.12;68.53
17260;BME280;8746;49.230;9.220;2023-02-22T10:53:33;99681.75;;;11.62;68.19
17260;BME280;8746;49.230;9.220;2023-02-22T10:56:17;99674.44;;;12.03;65.68
17260;BME280;8746;49.230;9.220;2023-02-22T10:58:51;99669.28;;;12.35;64.84
17260;BME280;8746;49.230;9.220;2023-02-22T11:03:58;99662.09;;;13.37;60.90
17260;BME280;8746;49.230;9.220;2023-02-22T11:06:23;99660.25;;;13.39;60.72
17260;BME280;8746;49.230;9.220;2023-02-22T11:08:49;99657.06;;;13.48;61.09
17260;BME280;8746;49.230;9.220;2023-02-22T11:11:24;99655.72;;;13.41;58.85
17260;BME280;8746;49.230;9.220;2023-02-22T11:13:56;99653.56;;;13.31;59.44
17260;BME280;8746;49.230;9.220;2023-02-22T11:21:30;99650.78;;;13.65;58.93
17260;BME280;8746;49.230;9.220;2023-02-22T11:24:05;99645.75;;;13.91;57.83
17260;BME280;8746;49.230;9.220;2023-02-22T11:26:43;99646.06;;;13.86;58.89
17260;BME280;8746;49.230;9.220;2023-02-22T11:29:19;99647.34;;;13.49;59.41
17260;BME280;8746;49.230;9.220;2023-02-22T11:31:47;99643.34;;;13.72;58.95
17260;BME280;8746;49.230;9.220;2023-02-22T11:34:36;99650.94;;;12.82;60.82
17260;BME280;8746;49.230;9.220;2023-02-22T11:39:47;99640.56;;;13.11;60.71
17260;BME280;8746;49.230;9.220;2023-02-22T11:42:33;99639.03;;;12.75;60.81
17260;BME280;8746;49.230;9.220;2023-02-22T11:45:33;99637.69;;;12.66;62.09
17260;BME280;8746;49.230;9.220;2023-02-22T11:48:00;99636.81;;;12.49;61.22
17260;BME280;8746;49.230;9.220;2023-02-22T11:55:42;99635.25;;;12.12;63.18
17260;BME280;8746;49.230;9.220;2023-02-22T12:00:57;99627.06;;;11.81;64.01
17260;BME280;8746;49.230;9.220;2023-02-22T12:03:55;99625.13;;;11.85;63.42
17260;BME280;8746;49.230;9.220;2023-02-22T12:06:49;99620.72;;;12.03;63.88
17260;BME280;8746;49.230;9.220;2023-02-22T12:20:36;99604.63;;;12.41;62.40
17260;BME280;8746;49.230;9.220;2023-02-22T12:23:21;99597.09;;;12.33;62.01
17260;BME280;8746;49.230;9.220;2023-02-22T12:26:11;99596.59;;;12.43;62.84
17260;BME280;8746;49.230;9.220;2023-02-22T12:28:41;99597.25;;;12.30;62.50
17260;BME280;8746;49.230;9.220;2023-02-22T12:31:22;99597.56;;;12.24;62.69
17260;BME280;8746;49.230;9.220;2023-02-22T12:36:20;99584.06;;;12.13;63.13
17260;BME280;8746;49.230;9.220;2023-02-22T12:38:58;99584.84;;;12.48;62.72
17260;BME280;8746;49.230;9.220;2023-02-22T12:41:40;99576.59;;;12.71;62.45
17260;BME280;8746;49.230;9.220;2023-02-22T12:44:34;99580.47;;;12.47;63.41
17260;BME280;8746;49.230;9.220;2023-02-22T12:47:01;99583.59;;;12.22;63.64
17260;BME280;8746;49.230;9.220;2023-02-22T12:49:36;99588.22;;;12.34;64.24
17260;BME280;8746;49.230;9.220;2023-02-22T12:54:50;99575.63;;;12.56;62.59
17260;BME280;8746;49.230;9.220;2023-02-22T13:00:21;99578.72;;;12.64;62.34
17260;BME280;8746;49.230;9.220;2023-02-22T13:03:17;99573.81;;;12.56;63.25
17260;BME280;8746;49.230;9.220;2023-02-22T13:05:51;99575.06;;;12.66;61.63
17260;BME280;8746;49.230;9.220;2023-02-22T13:08:28;99578.03;;;12.60;63.87
17260;BME280;8746;49.230;9.220;2023-02-22T13:13:45;99564.72;;;12.78;63.16
17260;BME280;8746;49.230;9.220;2023-02-22T13:16:30;99565.56;;;12.62;62.46
17260;BME280;8746;49.230;9.220;2023-02-22T13:19:10;99565.91;;;12.72;64.14
17260;BME280;8746;49.230;9.220;2023-02-22T13:21:49;99555.84;;;12.63;62.50
17260;BME280;8746;49.230;9.220;2023-02-22T13:24:22;99557.44;;;12.49;62.82
17260;BME280;8746;49.230;9.220;2023-02-22T13:26:53;99556.41;;;12.52;62.38
17260;BME280;8746;49.230;9.220;2023-02-22T13:29:29;99556.88;;;12.60;62.82
17260;BME280;8746;49.230;9.220;2023-02-22T13:48:48;99539.50;;;12.39;64.65
17260;BME280;8746;49.230;9.220;2023-02-22T13:51:41;99540.66;;;12.50;63.29
17260;BME280;8746;49.230;9.220;2023-02-22T13:54:34;99540.41;;;12.55;63.21
17260;BME280;8746;49.230;9.220;2023-02-22T13:57:03;99542.28;;;12.69;62.04
17260;BME280;8746;49.230;9.220;2023-02-22T13:59:41;99538.75;;;13.01;61.50
17260;BME280;8746;49.230;9.220;2023-02-22T14:02:31;99535.16;;;13.02;61.91
17260;BME280;8746;49.230;9.220;2023-02-22T14:04:56;99539.78;;;12.98;61.89
17260;BME280;8746;49.230;9.220;2023-02-22T14:09:54;99524.75;;;12.98;61.20
17260;BME280;8746;49.230;9.220;2023-02-22T14:15:15;99529.53;;;13.08;62.41
17260;BME280;8746;49.230;9.220;2023-02-22T14:17:45;99527.25;;;13.16;61.88
17260;BME280;8746;49.230;9.220;2023-02-22T14:22:39;99529.06;;;13.15;61.46
17260;BME280;8746;49.230;9.220;2023-02-22T14:25:38;99524.97;;;13.10;61.09
17260;BME280;8746;49.230;9.220;2023-02-22T14:31:12;99520.63;;;13.09;61.42
17260;BME280;8746;49.230;9.220;2023-02-22T14:39:19;99525.03;;;13.24;61.93
17260;BME280;8746;49.230;9.220;2023-02-22T14:41:57;99526.06;;;13.22;61.95
17260;BME280;8746;49.230;9.220;2023-02-22T14:44:32;99520.09;;;13.18;61.64
17260;BME280;8746;49.230;9.220;2023-02-22T14:47:03;99521.97;;;13.16;62.21
17260;BME280;8746;49.230;9.220;2023-02-22T14:49:34;99514.94;;;13.31;61.35
17260;BME280;8746;49.230;9.220;2023-02-22T14:52:05;99511.69;;;13.42;61.56
17260;BME280;8746;49.230;9.220;2023-02-22T14:54:45;99519.56;;;13.27;62.02
17260;BME280;8746;49.230;9.220;2023-02-22T14:57:20;99523.16;;;13.26;61.82
17260;BME280;8746;49.230;9.220;2023-02-22T15:02:25;99521.66;;;13.37;61.59
17260;BME280;8746;49.230;9.220;2023-02-22T15:04:54;99521.44;;;13.25;61.79
17260;BME280;8746;49.230;9.220;2023-02-22T15:07:26;99521.03;;;13.17;62.12
17260;BME280;8746;49.230;9.220;2023-02-22T15:10:05;99513.19;;;13.15;61.67
17260;BME280;8746;49.230;9.220;2023-02-22T15:12:31;99516.66;;;13.16;61.62
17260;BME280;8746;49.230;9.220;2023-02-22T15:15:11;99517.81;;;13.12;62.31
17260;BME280;8746;49.230;9.220;2023-02-22T15:17:40;99519.25;;;13.02;62.80
17260;BME280;8746;49.230;9.220;2023-02-22T15:20:07;99523.03;;;12.97;62.81
17260;BME280;8746;49.230;9.220;2023-02-22T15:22:36;99518.28;;;12.88;63.55
17260;BME280;8746;49.230;9.220;2023-02-22T15:25:04;99521.19;;;12.83;64.02
17260;BME280;8746;49.230;9.220;2023-02-22T15:27:31;99515.88;;;12.83;63.61